Terminal Aerodrome Forecast
Issued by NWS

Home | Current Version | Previous Version | Graphics & Text | Print | Product List | Glossary On
Versions: 1 2 3 4 5 6 7 8 9 10 11 12 13 14 15 16 17 18 19 20
000
FTUS43 KGRB 311100
TAFCWA
TAF
KCWA 311132Z 3112/0112 VRB03KT P6SM OVC015
      TEMPO 3112/3114 3SM BR SCT010
     FM311700 15007KT P6SM SCT025 SCT250
     FM010000 16004KT P6SM FEW030 BKN140
     FM010100 16005KT P6SM VCSH BKN090
     FM010300 16006KT 5SM -SHRA BKN050
     FM010600 18006KT 3SM SHRA OVC030 PROB30 0106/0112 1 1/2SM TSRA
      BKN015CB=

USA.gov is the U.S. government's official web portal to all federal, state and local government web resources and services.